sensor_id;sensor_type;location;lat;lon;timestamp;P1;durP1;ratioP1;P2;durP2;ratioP2
35444;SDS011;21562;49.476;6.086;2023-08-30T00:00:31;5.93;;;3.22;;
35444;SDS011;21562;49.476;6.086;2023-08-30T00:02:57;5.22;;;2.90;;
35444;SDS011;21562;49.476;6.086;2023-08-30T00:05:22;6.32;;;2.75;;
35444;SDS011;21562;49.476;6.086;2023-08-30T00:07:48;5.18;;;3.08;;
35444;SDS011;21562;49.476;6.086;2023-08-30T00:10:14;5.13;;;3.25;;
35444;SDS011;21562;49.476;6.086;2023-08-30T00:12:39;8.43;;;3.42;;
35444;SDS011;21562;49.476;6.086;2023-08-30T00:15:05;4.75;;;3.58;;
35444;SDS011;21562;49.476;6.086;2023-08-30T00:17:31;3.80;;;2.75;;
35444;SDS011;21562;49.476;6.086;2023-08-30T00:19:57;5.95;;;3.13;;
35444;SDS011;21562;49.476;6.086;2023-08-30T00:22:24;5.40;;;3.55;;
35444;SDS011;21562;49.476;6.086;2023-08-30T00:24:52;5.70;;;3.10;;
35444;SDS011;21562;49.476;6.086;2023-08-30T00:27:18;5.47;;;3.10;;
35444;SDS011;21562;49.476;6.086;2023-08-30T00:29:45;8.27;;;3.33;;
35444;SDS011;21562;49.476;6.086;2023-08-30T00:32:11;4.70;;;3.08;;
35444;SDS011;21562;49.476;6.086;2023-08-30T00:34:37;7.00;;;3.35;;
35444;SDS011;21562;49.476;6.086;2023-08-30T00:37:02;8.15;;;3.35;;
35444;SDS011;21562;49.476;6.086;2023-08-30T00:39:28;4.03;;;3.10;;
35444;SDS011;21562;49.476;6.086;2023-08-30T00:41:54;4.20;;;3.10;;
35444;SDS011;21562;49.476;6.086;2023-08-30T00:44:19;7.28;;;3.17;;
35444;SDS011;21562;49.476;6.086;2023-08-30T00:46:45;6.20;;;3.42;;
35444;SDS011;21562;49.476;6.086;2023-08-30T00:49:11;7.10;;;3.72;;
35444;SDS011;21562;49.476;6.086;2023-08-30T00:51:37;7.35;;;3.60;;
35444;SDS011;21562;49.476;6.086;2023-08-30T00:54:03;8.98;;;3.13;;
35444;SDS011;21562;49.476;6.086;2023-08-30T00:56:28;6.68;;;3.63;;
35444;SDS011;21562;49.476;6.086;2023-08-30T00:58:54;6.47;;;3.45;;
35444;SDS011;21562;49.476;6.086;2023-08-30T01:01:21;5.95;;;3.13;;
35444;SDS011;21562;49.476;6.086;2023-08-30T01:03:47;9.35;;;3.58;;
35444;SDS011;21562;49.476;6.086;2023-08-30T01:06:13;8.52;;;4.10;;
35444;SDS011;21562;49.476;6.086;2023-08-30T01:08:39;6.53;;;3.65;;
35444;SDS011;21562;49.476;6.086;2023-08-30T01:14:08;5.30;;;3.58;;
35444;SDS011;21562;49.476;6.086;2023-08-30T01:16:37;6.13;;;3.50;;
35444;SDS011;21562;49.476;6.086;2023-08-30T01:22:03;7.68;;;3.90;;
35444;SDS011;21562;49.476;6.086;2023-08-30T01:24:37;5.45;;;3.63;;
35444;SDS011;21562;49.476;6.086;2023-08-30T01:27:23;8.07;;;3.67;;
35444;SDS011;21562;49.476;6.086;2023-08-30T01:29:49;10.73;;;4.15;;
35444;SDS011;21562;49.476;6.086;2023-08-30T01:32:17;6.28;;;4.15;;
35444;SDS011;21562;49.476;6.086;2023-08-30T01:34:45;5.13;;;3.45;;
35444;SDS011;21562;49.476;6.086;2023-08-30T01:37:12;7.05;;;4.07;;
35444;SDS011;21562;49.476;6.086;2023-08-30T01:39:39;7.07;;;4.00;;
35444;SDS011;21562;49.476;6.086;2023-08-30T01:42:06;6.63;;;4.03;;
35444;SDS011;21562;49.476;6.086;2023-08-30T01:44:33;9.05;;;4.22;;
35444;SDS011;21562;49.476;6.086;2023-08-30T01:46:59;7.78;;;4.85;;
35444;SDS011;21562;49.476;6.086;2023-08-30T01:49:25;10.10;;;4.57;;
35444;SDS011;21562;49.476;6.086;2023-08-30T01:51:56;7.80;;;4.70;;
35444;SDS011;21562;49.476;6.086;2023-08-30T01:54:23;11.10;;;4.30;;
35444;SDS011;21562;49.476;6.086;2023-08-30T01:56:50;6.53;;;4.40;;
35444;SDS011;21562;49.476;6.086;2023-08-30T01:59:16;8.13;;;4.75;;
35444;SDS011;21562;49.476;6.086;2023-08-30T02:01:41;12.27;;;4.85;;
35444;SDS011;21562;49.476;6.086;2023-08-30T02:04:07;8.32;;;5.18;;
35444;SDS011;21562;49.476;6.086;2023-08-30T02:06:42;8.50;;;4.78;;
35444;SDS011;21562;49.476;6.086;2023-08-30T02:09:14;9.38;;;5.10;;
35444;SDS011;21562;49.476;6.086;2023-08-30T02:11:46;11.75;;;5.20;;
35444;SDS011;21562;49.476;6.086;2023-08-30T02:14:15;9.20;;;5.20;;
35444;SDS011;21562;49.476;6.086;2023-08-30T02:16:43;12.45;;;5.93;;
35444;SDS011;21562;49.476;6.086;2023-08-30T02:19:10;9.23;;;5.10;;
35444;SDS011;21562;49.476;6.086;2023-08-30T02:21:39;8.75;;;5.53;;
35444;SDS011;21562;49.476;6.086;2023-08-30T02:24:05;8.85;;;5.25;;
35444;SDS011;21562;49.476;6.086;2023-08-30T02:26:31;7.40;;;5.25;;
35444;SDS011;21562;49.476;6.086;2023-08-30T02:28:57;14.52;;;5.75;;
35444;SDS011;21562;49.476;6.086;2023-08-30T02:31:22;7.95;;;5.57;;
35444;SDS011;21562;49.476;6.086;2023-08-30T02:33:48;6.90;;;4.88;;
35444;SDS011;21562;49.476;6.086;2023-08-30T02:36:13;9.05;;;4.80;;
35444;SDS011;21562;49.476;6.086;2023-08-30T02:38:39;7.22;;;5.32;;
35444;SDS011;21562;49.476;6.086;2023-08-30T02:41:04;10.15;;;5.45;;
35444;SDS011;21562;49.476;6.086;2023-08-30T02:43:30;10.10;;;5.57;;
35444;SDS011;21562;49.476;6.086;2023-08-30T02:45:56;8.35;;;5.03;;
35444;SDS011;21562;49.476;6.086;2023-08-30T02:48:21;17.88;;;5.75;;
35444;SDS011;21562;49.476;6.086;2023-08-30T02:50:47;9.65;;;4.90;;
35444;SDS011;21562;49.476;6.086;2023-08-30T02:53:13;8.98;;;5.38;;
35444;SDS011;21562;49.476;6.086;2023-08-30T02:55:38;9.30;;;5.05;;
35444;SDS011;21562;49.476;6.086;2023-08-30T02:58:04;7.15;;;5.82;;
35444;SDS011;21562;49.476;6.086;2023-08-30T03:00:29;7.32;;;4.90;;
35444;SDS011;21562;49.476;6.086;2023-08-30T03:02:55;9.48;;;4.60;;
35444;SDS011;21562;49.476;6.086;2023-08-30T03:05:20;10.15;;;6.00;;
35444;SDS011;21562;49.476;6.086;2023-08-30T03:07:46;9.00;;;5.78;;
35444;SDS011;21562;49.476;6.086;2023-08-30T03:10:12;8.20;;;5.40;;
35444;SDS011;21562;49.476;6.086;2023-08-30T03:12:38;8.43;;;5.60;;
35444;SDS011;21562;49.476;6.086;2023-08-30T03:15:03;10.50;;;5.22;;
35444;SDS011;21562;49.476;6.086;2023-08-30T03:17:30;8.27;;;5.35;;
35444;SDS011;21562;49.476;6.086;2023-08-30T03:19:55;8.25;;;5.70;;
35444;SDS011;21562;49.476;6.086;2023-08-30T03:22:21;8.52;;;4.97;;
35444;SDS011;21562;49.476;6.086;2023-08-30T03:24:47;6.88;;;5.05;;
35444;SDS011;21562;49.476;6.086;2023-08-30T03:27:14;8.63;;;5.90;;
35444;SDS011;21562;49.476;6.086;2023-08-30T03:29:40;10.95;;;5.70;;
35444;SDS011;21562;49.476;6.086;2023-08-30T03:32:05;7.00;;;5.53;;
35444;SDS011;21562;49.476;6.086;2023-08-30T03:34:31;11.15;;;6.20;;
35444;SDS011;21562;49.476;6.086;2023-08-30T03:36:56;11.13;;;5.78;;
35444;SDS011;21562;49.476;6.086;2023-08-30T03:39:22;10.32;;;5.25;;
35444;SDS011;21562;49.476;6.086;2023-08-30T03:41:49;10.75;;;5.70;;
35444;SDS011;21562;49.476;6.086;2023-08-30T03:44:15;11.98;;;4.93;;
35444;SDS011;21562;49.476;6.086;2023-08-30T03:46:41;8.10;;;5.20;;
35444;SDS011;21562;49.476;6.086;2023-08-30T03:49:06;10.10;;;5.22;;
35444;SDS011;21562;49.476;6.086;2023-08-30T03:51:32;11.43;;;5.40;;
35444;SDS011;21562;49.476;6.086;2023-08-30T03:53:58;12.48;;;5.63;;
35444;SDS011;21562;49.476;6.086;2023-08-30T03:56:23;10.10;;;5.85;;
35444;SDS011;21562;49.476;6.086;2023-08-30T03:58:49;10.85;;;5.93;;
35444;SDS011;21562;49.476;6.086;2023-08-30T04:01:14;13.45;;;5.63;;
35444;SDS011;21562;49.476;6.086;2023-08-30T04:03:40;10.45;;;6.20;;
35444;SDS011;21562;49.476;6.086;2023-08-30T04:06:06;9.73;;;6.22;;
35444;SDS011;21562;49.476;6.086;2023-08-30T04:08:32;11.95;;;6.55;;
35444;SDS011;21562;49.476;6.086;2023-08-30T04:10:57;13.20;;;6.97;;
35444;SDS011;21562;49.476;6.086;2023-08-30T04:13:23;10.60;;;6.38;;
35444;SDS011;21562;49.476;6.086;2023-08-30T04:15:49;8.57;;;5.40;;
35444;SDS011;21562;49.476;6.086;2023-08-30T04:18:14;12.95;;;7.07;;
35444;SDS011;21562;49.476;6.086;2023-08-30T04:20:44;13.77;;;6.43;;
35444;SDS011;21562;49.476;6.086;2023-08-30T04:23:10;11.45;;;6.38;;
35444;SDS011;21562;49.476;6.086;2023-08-30T04:25:36;10.82;;;6.60;;
35444;SDS011;21562;49.476;6.086;2023-08-30T04:28:02;8.13;;;6.07;;
35444;SDS011;21562;49.476;6.086;2023-08-30T04:30:28;9.20;;;6.15;;
35444;SDS011;21562;49.476;6.086;2023-08-30T04:32:54;11.60;;;6.93;;
35444;SDS011;21562;49.476;6.086;2023-08-30T04:35:19;13.75;;;7.50;;
35444;SDS011;21562;49.476;6.086;2023-08-30T04:37:45;11.52;;;7.05;;
35444;SDS011;21562;49.476;6.086;2023-08-30T04:40:13;13.73;;;7.18;;
35444;SDS011;21562;49.476;6.086;2023-08-30T04:42:39;14.85;;;7.57;;
35444;SDS011;21562;49.476;6.086;2023-08-30T04:45:05;15.18;;;7.28;;
35444;SDS011;21562;49.476;6.086;2023-08-30T04:47:32;15.68;;;7.03;;
35444;SDS011;21562;49.476;6.086;2023-08-30T04:49:58;9.45;;;6.70;;
35444;SDS011;21562;49.476;6.086;2023-08-30T04:52:24;13.63;;;7.50;;
35444;SDS011;21562;49.476;6.086;2023-08-30T04:54:50;15.10;;;7.93;;
35444;SDS011;21562;49.476;6.086;2023-08-30T04:57:16;13.75;;;6.75;;
35444;SDS011;21562;49.476;6.086;2023-08-30T04:59:42;12.63;;;7.25;;
35444;SDS011;21562;49.476;6.086;2023-08-30T05:02:08;9.52;;;6.75;;
35444;SDS011;21562;49.476;6.086;2023-08-30T05:04:34;14.60;;;6.97;;
35444;SDS011;21562;49.476;6.086;2023-08-30T05:07:00;9.50;;;6.85;;
35444;SDS011;21562;49.476;6.086;2023-08-30T05:09:26;11.25;;;7.18;;
35444;SDS011;21562;49.476;6.086;2023-08-30T05:11:52;10.05;;;6.97;;
35444;SDS011;21562;49.476;6.086;2023-08-30T05:14:18;11.52;;;6.53;;
35444;SDS011;21562;49.476;6.086;2023-08-30T05:16:44;13.30;;;7.28;;
35444;SDS011;21562;49.476;6.086;2023-08-30T05:19:10;8.85;;;6.18;;
35444;SDS011;21562;49.476;6.086;2023-08-30T05:21:36;10.05;;;5.88;;
35444;SDS011;21562;49.476;6.086;2023-08-30T05:24:01;7.95;;;5.57;;
35444;SDS011;21562;49.476;6.086;2023-08-30T05:26:27;9.98;;;5.20;;
35444;SDS011;21562;49.476;6.086;2023-08-30T05:28:53;8.30;;;5.70;;
35444;SDS011;21562;49.476;6.086;2023-08-30T05:31:19;9.75;;;6.43;;
35444;SDS011;21562;49.476;6.086;2023-08-30T05:33:44;10.30;;;5.40;;
35444;SDS011;21562;49.476;6.086;2023-08-30T05:36:10;8.75;;;5.82;;
35444;SDS011;21562;49.476;6.086;2023-08-30T05:38:35;9.73;;;6.43;;
35444;SDS011;21562;49.476;6.086;2023-08-30T05:41:01;9.77;;;6.05;;
35444;SDS011;21562;49.476;6.086;2023-08-30T05:43:27;9.07;;;6.65;;
35444;SDS011;21562;49.476;6.086;2023-08-30T05:45:52;20.00;;;7.43;;
35444;SDS011;21562;49.476;6.086;2023-08-30T05:48:18;14.95;;;6.10;;
35444;SDS011;21562;49.476;6.086;2023-08-30T05:50:44;8.88;;;5.25;;
35444;SDS011;21562;49.476;6.086;2023-08-30T05:53:10;9.63;;;7.50;;
35444;SDS011;21562;49.476;6.086;2023-08-30T05:55:36;13.52;;;8.13;;
35444;SDS011;21562;49.476;6.086;2023-08-30T05:58:02;14.52;;;9.18;;
35444;SDS011;21562;49.476;6.086;2023-08-30T06:00:28;14.60;;;9.18;;
35444;SDS011;21562;49.476;6.086;2023-08-30T06:02:54;11.38;;;8.02;;
35444;SDS011;21562;49.476;6.086;2023-08-30T06:05:19;15.48;;;9.18;;
35444;SDS011;21562;49.476;6.086;2023-08-30T06:07:45;14.30;;;8.98;;
35444;SDS011;21562;49.476;6.086;2023-08-30T06:10:11;18.83;;;10.85;;
35444;SDS011;21562;49.476;6.086;2023-08-30T06:12:37;16.08;;;10.18;;
35444;SDS011;21562;49.476;6.086;2023-08-30T06:15:03;19.02;;;10.05;;
35444;SDS011;21562;49.476;6.086;2023-08-30T06:17:29;16.55;;;10.00;;
35444;SDS011;21562;49.476;6.086;2023-08-30T06:19:54;18.67;;;10.43;;
35444;SDS011;21562;49.476;6.086;2023-08-30T06:22:20;16.70;;;10.30;;
35444;SDS011;21562;49.476;6.086;2023-08-30T06:24:46;17.02;;;10.20;;
35444;SDS011;21562;49.476;6.086;2023-08-30T06:27:11;17.52;;;9.90;;
35444;SDS011;21562;49.476;6.086;2023-08-30T06:29:37;15.05;;;9.57;;
35444;SDS011;21562;49.476;6.086;2023-08-30T06:32:03;16.10;;;9.80;;
35444;SDS011;21562;49.476;6.086;2023-08-30T06:34:29;13.70;;;9.45;;
35444;SDS011;21562;49.476;6.086;2023-08-30T06:36:55;15.95;;;9.50;;
35444;SDS011;21562;49.476;6.086;2023-08-30T06:39:20;12.57;;;8.77;;
35444;SDS011;21562;49.476;6.086;2023-08-30T06:41:46;12.32;;;8.90;;
35444;SDS011;21562;49.476;6.086;2023-08-30T06:44:11;11.85;;;8.30;;
35444;SDS011;21562;49.476;6.086;2023-08-30T06:46:37;10.57;;;7.93;;
35444;SDS011;21562;49.476;6.086;2023-08-30T06:49:03;12.40;;;8.35;;
35444;SDS011;21562;49.476;6.086;2023-08-30T06:51:29;12.73;;;9.35;;
35444;SDS011;21562;49.476;6.086;2023-08-30T06:53:55;13.23;;;7.63;;
35444;SDS011;21562;49.476;6.086;2023-08-30T06:56:25;15.52;;;7.70;;
35444;SDS011;21562;49.476;6.086;2023-08-30T06:58:51;12.68;;;7.82;;
35444;SDS011;21562;49.476;6.086;2023-08-30T07:01:16;10.38;;;7.68;;
35444;SDS011;21562;49.476;6.086;2023-08-30T07:03:42;11.52;;;7.57;;
35444;SDS011;21562;49.476;6.086;2023-08-30T07:06:09;16.70;;;7.97;;
35444;SDS011;21562;49.476;6.086;2023-08-30T07:08:34;10.73;;;6.78;;
35444;SDS011;21562;49.476;6.086;2023-08-30T07:11:00;12.43;;;8.05;;
35444;SDS011;21562;49.476;6.086;2023-08-30T07:13:26;8.88;;;7.15;;
35444;SDS011;21562;49.476;6.086;2023-08-30T07:15:51;10.15;;;7.38;;
35444;SDS011;21562;49.476;6.086;2023-08-30T07:18:17;8.73;;;7.05;;
35444;SDS011;21562;49.476;6.086;2023-08-30T07:20:43;11.45;;;6.90;;
35444;SDS011;21562;49.476;6.086;2023-08-30T07:23:09;11.15;;;6.82;;
35444;SDS011;21562;49.476;6.086;2023-08-30T07:25:36;13.55;;;6.20;;
35444;SDS011;21562;49.476;6.086;2023-08-30T07:28:02;14.63;;;7.15;;
35444;SDS011;21562;49.476;6.086;2023-08-30T07:30:29;11.55;;;6.70;;
35444;SDS011;21562;49.476;6.086;2023-08-30T07:32:54;10.98;;;6.82;;
35444;SDS011;21562;49.476;6.086;2023-08-30T07:35:20;9.52;;;6.13;;
35444;SDS011;21562;49.476;6.086;2023-08-30T07:37:46;12.00;;;5.95;;
35444;SDS011;21562;49.476;6.086;2023-08-30T07:40:12;11.25;;;5.65;;
35444;SDS011;21562;49.476;6.086;2023-08-30T07:42:37;12.07;;;5.70;;
35444;SDS011;21562;49.476;6.086;2023-08-30T07:45:03;8.15;;;6.28;;
35444;SDS011;21562;49.476;6.086;2023-08-30T07:47:29;10.73;;;6.95;;
35444;SDS011;21562;49.476;6.086;2023-08-30T07:49:55;17.33;;;7.65;;
35444;SDS011;21562;49.476;6.086;2023-08-30T07:52:21;7.15;;;5.38;;
35444;SDS011;21562;49.476;6.086;2023-08-30T07:54:46;11.27;;;5.97;;
35444;SDS011;21562;49.476;6.086;2023-08-30T07:57:12;8.52;;;4.97;;
35444;SDS011;21562;49.476;6.086;2023-08-30T07:59:38;9.35;;;5.00;;
35444;SDS011;21562;49.476;6.086;2023-08-30T08:02:06;7.95;;;4.97;;
35444;SDS011;21562;49.476;6.086;2023-08-30T08:04:33;7.18;;;4.82;;
35444;SDS011;21562;49.476;6.086;2023-08-30T08:06:59;13.13;;;4.88;;
35444;SDS011;21562;49.476;6.086;2023-08-30T08:09:24;9.60;;;4.78;;
35444;SDS011;21562;49.476;6.086;2023-08-30T08:11:50;8.40;;;4.70;;
35444;SDS011;21562;49.476;6.086;2023-08-30T08:14:16;7.38;;;4.05;;
35444;SDS011;21562;49.476;6.086;2023-08-30T08:16:42;6.95;;;4.07;;
35444;SDS011;21562;49.476;6.086;2023-08-30T08:19:08;7.55;;;4.53;;
35444;SDS011;21562;49.476;6.086;2023-08-30T08:21:34;7.65;;;4.38;;
35444;SDS011;21562;49.476;6.086;2023-08-30T08:24:00;6.10;;;3.72;;
35444;SDS011;21562;49.476;6.086;2023-08-30T08:26:26;7.90;;;4.07;;
35444;SDS011;21562;49.476;6.086;2023-08-30T08:28:51;10.57;;;3.75;;
35444;SDS011;21562;49.476;6.086;2023-08-30T08:31:18;13.15;;;4.18;;
35444;SDS011;21562;49.476;6.086;2023-08-30T08:33:44;6.82;;;3.90;;
35444;SDS011;21562;49.476;6.086;2023-08-30T08:36:09;8.98;;;3.90;;
35444;SDS011;21562;49.476;6.086;2023-08-30T08:38:35;8.88;;;4.35;;
35444;SDS011;21562;49.476;6.086;2023-08-30T08:41:05;7.05;;;3.70;;
35444;SDS011;21562;49.476;6.086;2023-08-30T08:43:34;7.90;;;3.53;;
35444;SDS011;21562;49.476;6.086;2023-08-30T08:46:02;5.90;;;3.70;;
35444;SDS011;21562;49.476;6.086;2023-08-30T08:48:28;14.43;;;3.80;;
35444;SDS011;21562;49.476;6.086;2023-08-30T08:50:56;9.23;;;3.83;;
35444;SDS011;21562;49.476;6.086;2023-08-30T08:53:22;9.63;;;3.85;;
35444;SDS011;21562;49.476;6.086;2023-08-30T08:55:48;9.57;;;3.85;;
35444;SDS011;21562;49.476;6.086;2023-08-30T08:58:14;8.30;;;3.90;;
35444;SDS011;21562;49.476;6.086;2023-08-30T09:00:43;11.45;;;4.05;;
35444;SDS011;21562;49.476;6.086;2023-08-30T09:03:10;8.27;;;3.45;;
35444;SDS011;21562;49.476;6.086;2023-08-30T09:05:39;12.77;;;3.85;;
35444;SDS011;21562;49.476;6.086;2023-08-30T09:08:05;10.77;;;4.43;;
35444;SDS011;21562;49.476;6.086;2023-08-30T09:10:32;10.18;;;3.70;;
35444;SDS011;21562;49.476;6.086;2023-08-30T09:12:58;10.02;;;3.30;;
35444;SDS011;21562;49.476;6.086;2023-08-30T09:15:30;5.55;;;3.85;;
35444;SDS011;21562;49.476;6.086;2023-08-30T09:17:57;41.88;;;6.32;;
35444;SDS011;21562;49.476;6.086;2023-08-30T09:20:22;7.35;;;3.40;;
35444;SDS011;21562;49.476;6.086;2023-08-30T09:22:48;9.73;;;3.97;;
35444;SDS011;21562;49.476;6.086;2023-08-30T09:25:22;11.52;;;3.90;;
35444;SDS011;21562;49.476;6.086;2023-08-30T09:27:50;7.53;;;3.78;;
35444;SDS011;21562;49.476;6.086;2023-08-30T09:30:21;17.17;;;4.88;;
35444;SDS011;21562;49.476;6.086;2023-08-30T09:32:46;8.90;;;3.13;;
35444;SDS011;21562;49.476;6.086;2023-08-30T09:35:12;12.85;;;3.85;;
35444;SDS011;21562;49.476;6.086;2023-08-30T09:37:38;5.45;;;3.00;;
35444;SDS011;21562;49.476;6.086;2023-08-30T09:40:04;9.73;;;4.97;;
35444;SDS011;21562;49.476;6.086;2023-08-30T09:42:30;11.45;;;4.13;;
35444;SDS011;21562;49.476;6.086;2023-08-30T09:44:56;9.05;;;4.05;;
35444;SDS011;21562;49.476;6.086;2023-08-30T09:47:23;5.45;;;3.67;;
35444;SDS011;21562;49.476;6.086;2023-08-30T09:49:51;10.38;;;3.85;;
35444;SDS011;21562;49.476;6.086;2023-08-30T09:52:18;7.45;;;3.63;;
35444;SDS011;21562;49.476;6.086;2023-08-30T09:54:47;8.73;;;3.85;;
35444;SDS011;21562;49.476;6.086;2023-08-30T09:57:13;6.65;;;3.88;;
35444;SDS011;21562;49.476;6.086;2023-08-30T09:59:39;7.47;;;3.58;;
35444;SDS011;21562;49.476;6.086;2023-08-30T10:02:05;10.73;;;3.63;;
35444;SDS011;21562;49.476;6.086;2023-08-30T10:04:32;6.88;;;3.28;;
35444;SDS011;21562;49.476;6.086;2023-08-30T10:07:02;8.82;;;3.25;;
35444;SDS011;21562;49.476;6.086;2023-08-30T10:09:29;7.10;;;2.97;;
35444;SDS011;21562;49.476;6.086;2023-08-30T10:11:55;12.82;;;3.30;;
35444;SDS011;21562;49.476;6.086;2023-08-30T10:14:23;8.20;;;3.42;;
35444;SDS011;21562;49.476;6.086;2023-08-30T10:16:49;9.50;;;3.03;;
35444;SDS011;21562;49.476;6.086;2023-08-30T10:21:45;7.72;;;3.65;;
35444;SDS011;21562;49.476;6.086;2023-08-30T10:24:14;9.48;;;3.65;;
35444;SDS011;21562;49.476;6.086;2023-08-30T10:26:42;8.50;;;4.07;;
35444;SDS011;21562;49.476;6.086;2023-08-30T10:29:09;10.98;;;3.42;;
35444;SDS011;21562;49.476;6.086;2023-08-30T10:31:38;5.57;;;2.88;;
35444;SDS011;21562;49.476;6.086;2023-08-30T10:34:11;6.18;;;3.15;;
35444;SDS011;21562;49.476;6.086;2023-08-30T10:36:43;9.40;;;3.30;;
35444;SDS011;21562;49.476;6.086;2023-08-30T10:39:12;8.35;;;2.90;;
35444;SDS011;21562;49.476;6.086;2023-08-30T10:41:55;13.70;;;3.60;;
35444;SDS011;21562;49.476;6.086;2023-08-30T10:44:21;9.98;;;3.75;;
35444;SDS011;21562;49.476;6.086;2023-08-30T10:46:51;8.85;;;3.78;;
35444;SDS011;21562;49.476;6.086;2023-08-30T10:49:18;6.30;;;3.38;;
35444;SDS011;21562;49.476;6.086;2023-08-30T10:51:44;5.50;;;3.42;;
35444;SDS011;21562;49.476;6.086;2023-08-30T10:56:48;6.55;;;3.42;;
35444;SDS011;21562;49.476;6.086;2023-08-30T10:59:21;5.25;;;3.35;;
35444;SDS011;21562;49.476;6.086;2023-08-30T11:01:49;7.32;;;3.25;;
35444;SDS011;21562;49.476;6.086;2023-08-30T11:04:17;9.77;;;2.95;;
35444;SDS011;21562;49.476;6.086;2023-08-30T11:06:43;10.75;;;3.08;;
35444;SDS011;21562;49.476;6.086;2023-08-30T11:09:13;5.47;;;3.17;;
35444;SDS011;21562;49.476;6.086;2023-08-30T11:11:42;4.88;;;2.58;;
35444;SDS011;21562;49.476;6.086;2023-08-30T11:14:09;5.65;;;3.00;;
35444;SDS011;21562;49.476;6.086;2023-08-30T11:16:35;11.93;;;3.20;;
35444;SDS011;21562;49.476;6.086;2023-08-30T11:19:05;5.68;;;2.70;;
35444;SDS011;21562;49.476;6.086;2023-08-30T11:21:32;7.70;;;2.72;;
35444;SDS011;21562;49.476;6.086;2023-08-30T11:24:00;5.60;;;2.92;;
35444;SDS011;21562;49.476;6.086;2023-08-30T11:26:25;9.25;;;3.67;;
35444;SDS011;21562;49.476;6.086;2023-08-30T11:28:51;4.10;;;2.90;;
35444;SDS011;21562;49.476;6.086;2023-08-30T11:31:24;7.57;;;3.30;;
35444;SDS011;21562;49.476;6.086;2023-08-30T11:36:21;7.35;;;3.55;;
35444;SDS011;21562;49.476;6.086;2023-08-30T11:38:47;6.13;;;3.10;;
35444;SDS011;21562;49.476;6.086;2023-08-30T11:41:16;6.93;;;3.72;;
35444;SDS011;21562;49.476;6.086;2023-08-30T11:43:43;8.15;;;3.38;;
35444;SDS011;21562;49.476;6.086;2023-08-30T11:46:09;10.40;;;3.40;;
35444;SDS011;21562;49.476;6.086;2023-08-30T11:48:35;5.57;;;3.28;;
35444;SDS011;21562;49.476;6.086;2023-08-30T11:51:01;7.20;;;2.97;;
35444;SDS011;21562;49.476;6.086;2023-08-30T11:53:27;5.95;;;2.88;;
35444;SDS011;21562;49.476;6.086;2023-08-30T11:55:53;7.35;;;3.40;;
35444;SDS011;21562;49.476;6.086;2023-08-30T11:58:19;9.43;;;3.65;;
35444;SDS011;21562;49.476;6.086;2023-08-30T12:00:45;10.32;;;3.97;;
35444;SDS011;21562;49.476;6.086;2023-08-30T12:03:28;9.18;;;4.68;;
35444;SDS011;21562;49.476;6.086;2023-08-30T12:08:42;9.68;;;5.07;;
35444;SDS011;21562;49.476;6.086;2023-08-30T12:11:17;11.77;;;6.03;;
35444;SDS011;21562;49.476;6.086;2023-08-30T12:13:44;8.20;;;5.90;;
35444;SDS011;21562;49.476;6.086;2023-08-30T12:16:14;10.15;;;5.50;;
35444;SDS011;21562;49.476;6.086;2023-08-30T12:18:43;7.78;;;5.40;;
35444;SDS011;21562;49.476;6.086;2023-08-30T12:21:09;11.25;;;5.53;;
35444;SDS011;21562;49.476;6.086;2023-08-30T12:23:35;10.75;;;4.57;;
35444;SDS011;21562;49.476;6.086;2023-08-30T12:26:04;7.20;;;4.45;;
35444;SDS011;21562;49.476;6.086;2023-08-30T12:28:34;6.95;;;4.30;;
35444;SDS011;21562;49.476;6.086;2023-08-30T12:31:01;7.68;;;3.95;;
35444;SDS011;21562;49.476;6.086;2023-08-30T12:33:32;10.65;;;4.25;;
35444;SDS011;21562;49.476;6.086;2023-08-30T12:35:59;5.90;;;3.72;;
35444;SDS011;21562;49.476;6.086;2023-08-30T12:38:24;7.63;;;3.78;;
35444;SDS011;21562;49.476;6.086;2023-08-30T12:40:51;6.95;;;4.40;;
35444;SDS011;21562;49.476;6.086;2023-08-30T12:43:18;8.05;;;5.20;;
35444;SDS011;21562;49.476;6.086;2023-08-30T12:45:45;9.57;;;4.55;;
35444;SDS011;21562;49.476;6.086;2023-08-30T12:48:11;5.45;;;3.67;;
35444;SDS011;21562;49.476;6.086;2023-08-30T12:50:40;6.05;;;4.10;;
35444;SDS011;21562;49.476;6.086;2023-08-30T12:53:06;8.60;;;4.03;;
35444;SDS011;21562;49.476;6.086;2023-08-30T12:55:33;6.28;;;3.50;;
35444;SDS011;21562;49.476;6.086;2023-08-30T12:58:01;5.70;;;3.30;;
35444;SDS011;21562;49.476;6.086;2023-08-30T13:00:27;4.97;;;3.13;;
35444;SDS011;21562;49.476;6.086;2023-08-30T13:02:53;12.20;;;3.10;;
35444;SDS011;21562;49.476;6.086;2023-08-30T13:05:19;6.30;;;3.00;;
35444;SDS011;21562;49.476;6.086;2023-08-30T13:07:46;7.70;;;3.55;;
35444;SDS011;21562;49.476;6.086;2023-08-30T13:10:12;6.20;;;3.38;;
35444;SDS011;21562;49.476;6.086;2023-08-30T13:12:37;5.57;;;3.30;;
35444;SDS011;21562;49.476;6.086;2023-08-30T13:15:04;6.03;;;3.28;;
35444;SDS011;21562;49.476;6.086;2023-08-30T13:17:30;4.93;;;3.15;;
35444;SDS011;21562;49.476;6.086;2023-08-30T13:19:55;10.75;;;3.30;;
35444;SDS011;21562;49.476;6.086;2023-08-30T13:22:24;4.75;;;3.30;;
35444;SDS011;21562;49.476;6.086;2023-08-30T13:24:51;7.43;;;3.45;;
35444;SDS011;21562;49.476;6.086;2023-08-30T13:27:17;9.75;;;4.05;;
35444;SDS011;21562;49.476;6.086;2023-08-30T13:29:43;9.50;;;4.15;;
35444;SDS011;21562;49.476;6.086;2023-08-30T13:32:08;5.63;;;4.07;;
35444;SDS011;21562;49.476;6.086;2023-08-30T13:34:34;8.20;;;3.72;;
35444;SDS011;21562;49.476;6.086;2023-08-30T13:37:00;11.52;;;3.13;;
35444;SDS011;21562;49.476;6.086;2023-08-30T13:39:25;6.72;;;2.78;;
35444;SDS011;21562;49.476;6.086;2023-08-30T13:41:51;4.65;;;2.80;;
35444;SDS011;21562;49.476;6.086;2023-08-30T13:44:16;4.13;;;2.15;;
35444;SDS011;21562;49.476;6.086;2023-08-30T13:46:43;3.15;;;2.20;;
35444;SDS011;21562;49.476;6.086;2023-08-30T13:49:09;5.75;;;2.45;;
35444;SDS011;21562;49.476;6.086;2023-08-30T13:51:35;4.63;;;2.33;;
35444;SDS011;21562;49.476;6.086;2023-08-30T13:54:01;6.47;;;2.80;;
35444;SDS011;21562;49.476;6.086;2023-08-30T13:56:27;2.75;;;1.90;;
35444;SDS011;21562;49.476;6.086;2023-08-30T13:58:53;6.05;;;2.00;;
35444;SDS011;21562;49.476;6.086;2023-08-30T14:01:20;3.42;;;2.08;;
35444;SDS011;21562;49.476;6.086;2023-08-30T14:03:46;4.43;;;2.33;;
35444;SDS011;21562;49.476;6.086;2023-08-30T14:06:11;3.00;;;2.10;;
35444;SDS011;21562;49.476;6.086;2023-08-30T14:08:37;4.72;;;2.03;;
35444;SDS011;21562;49.476;6.086;2023-08-30T14:11:03;4.85;;;2.05;;
35444;SDS011;21562;49.476;6.086;2023-08-30T14:13:29;5.85;;;2.60;;
35444;SDS011;21562;49.476;6.086;2023-08-30T14:15:58;7.13;;;2.75;;
35444;SDS011;21562;49.476;6.086;2023-08-30T14:18:24;3.45;;;2.20;;
35444;SDS011;21562;49.476;6.086;2023-08-30T14:20:50;3.80;;;2.42;;
35444;SDS011;21562;49.476;6.086;2023-08-30T14:23:19;4.10;;;2.50;;
35444;SDS011;21562;49.476;6.086;2023-08-30T14:25:45;3.92;;;2.63;;
35444;SDS011;21562;49.476;6.086;2023-08-30T14:28:11;4.68;;;2.72;;
35444;SDS011;21562;49.476;6.086;2023-08-30T14:30:36;7.72;;;2.92;;
35444;SDS011;21562;49.476;6.086;2023-08-30T14:33:02;4.38;;;2.22;;
35444;SDS011;21562;49.476;6.086;2023-08-30T14:35:28;4.22;;;3.15;;
35444;SDS011;21562;49.476;6.086;2023-08-30T14:37:56;3.03;;;2.47;;
35444;SDS011;21562;49.476;6.086;2023-08-30T14:40:22;9.52;;;2.95;;
35444;SDS011;21562;49.476;6.086;2023-08-30T14:42:47;10.20;;;3.30;;
35444;SDS011;21562;49.476;6.086;2023-08-30T14:45:13;6.30;;;3.30;;
35444;SDS011;21562;49.476;6.086;2023-08-30T14:47:38;5.13;;;2.95;;
35444;SDS011;21562;49.476;6.086;2023-08-30T14:50:04;9.05;;;3.00;;
35444;SDS011;21562;49.476;6.086;2023-08-30T14:52:30;6.32;;;3.10;;
35444;SDS011;21562;49.476;6.086;2023-08-30T14:54:56;6.03;;;3.33;;